Terminal Aerodrome Forecast
Issued by NWS

Current Version | Previous Version | Text Only | Print | Product List | Glossary Off
Versions: 1 2 3 4 5 6 7 8 9 10 11 12 13 14 15 16 17 18 19 20 21 22 23 24 25 26 27 28 29 30 31

000
FTUS41 KRNK 262349
TAFLWB
TAF
KLWB 262349Z 2700/2724 VRB06KT P6SM VCTS BKN050CB OVC100
      TEMPO 2700/2702 1 1/2SM TSRA BR SCT007 BKN025CB
     FM270200 VRB05KT P6SM -SHRA BKN025 OVC090
     FM270600 VRB03KT 3SM -SHRA BR BKN015 OVC050
     FM271300 26006KT 4SM -SHRA BR VCTS BKN025CB OVC080 PROB30
      2717/2722 1SM +TSRA BR BKN007 OVC020CB=

USA.gov is the U.S. government's official web portal to all federal, state and local government web resources and services.